Time;durP1;ratioP1;P1;durP2;ratioP2;P2;SDS_P1;SDS_P2;PMS_P1;PMS_P2;Temp;Humidity;BMP_temperature;BMP_pressure;BME280_temperature;BME280_humidity;BME280_pressure;Samples;Min_cycle;Max_cycle;Signal;HPM_P1;HPM_P2
2023/12/30 00:01:48;;;;;;;4.30;1.20;;;5.90;99.90;;;;;;5010070;28;20231;-84
2023/12/30 00:04:16;;;;;;;3.67;1.20;;;5.90;99.90;;;;;;4996026;28;20232;-84
2023/12/30 00:06:44;;;;;;;7.47;1.63;;;5.90;99.90;;;;;;4996097;28;20303;-84
2023/12/30 00:09:11;;;;;;;5.87;1.10;;;5.90;99.90;;;;;;4991491;28;20230;-84
2023/12/30 00:11:38;;;;;;;4.83;1.67;;;5.90;99.90;;;;;;4985062;28;20769;-85
2023/12/30 00:14:05;;;;;;;4.60;1.30;;;5.80;99.90;;;;;;5005750;28;20250;-85
2023/12/30 00:16:32;;;;;;;3.67;1.00;;;5.80;99.90;;;;;;5006840;28;20314;-85
2023/12/30 00:18:59;;;;;;;3.83;1.50;;;5.80;99.90;;;;;;4987780;28;20227;-85
2023/12/30 00:21:27;;;;;;;4.47;1.10;;;5.80;99.90;;;;;;4998418;28;20757;-84
2023/12/30 00:23:54;;;;;;;4.17;1.20;;;5.80;99.90;;;;;;4990952;28;20214;-85
2023/12/30 00:26:22;;;;;;;4.03;1.03;;;5.80;99.90;;;;;;4990459;28;20293;-84
2023/12/30 00:29:00;;;;;;;4.17;1.60;;;5.80;99.90;;;;;;4984798;28;20223;-84
2023/12/30 00:31:29;;;;;;;3.50;1.23;;;5.80;99.90;;;;;;4991500;28;20235;-84
2023/12/30 00:33:57;;;;;;;6.03;1.30;;;5.80;99.90;;;;;;5008647;28;20227;-85
2023/12/30 00:36:24;;;;;;;5.00;1.33;;;5.80;99.90;;;;;;4990867;28;20265;-84
2023/12/30 00:38:54;;;;;;;2.70;1.20;;;5.80;99.90;;;;;;4992966;28;20255;-84
2023/12/30 00:41:21;;;;;;;5.53;1.33;;;5.80;99.90;;;;;;4989568;28;21028;-84
2023/12/30 00:43:48;;;;;;;5.43;1.40;;;5.80;99.90;;;;;;5004617;28;20226;-85
2023/12/30 00:46:15;;;;;;;4.67;1.27;;;5.80;99.90;;;;;;4993367;28;20219;-85
2023/12/30 00:48:42;;;;;;;2.97;1.23;;;5.80;99.90;;;;;;4999649;28;20250;-85
2023/12/30 00:51:09;;;;;;;6.57;1.70;;;5.80;99.90;;;;;;5009753;28;20249;-85
2023/12/30 00:53:36;;;;;;;4.87;1.23;;;5.80;99.90;;;;;;4990461;28;20803;-85
2023/12/30 00:56:04;;;;;;;3.17;1.40;;;5.70;99.90;;;;;;4988608;28;20317;-85
2023/12/30 00:58:31;;;;;;;4.90;1.73;;;5.80;99.90;;;;;;4987960;28;20234;-85
2023/12/30 01:00:58;;;;;;;4.30;1.70;;;5.80;99.90;;;;;;4990598;28;20239;-86
2023/12/30 01:03:25;;;;;;;4.83;1.90;;;5.70;99.90;;;;;;4987244;28;20661;-84
2023/12/30 01:05:53;;;;;;;4.50;2.00;;;5.80;99.90;;;;;;4983981;28;20663;-85
2023/12/30 01:08:19;;;;;;;4.23;2.00;;;5.70;99.90;;;;;;4991870;28;20314;-86
2023/12/30 01:10:46;;;;;;;3.67;2.33;;;5.70;99.90;;;;;;4987364;28;20686;-85
2023/12/30 01:13:14;;;;;;;9.57;2.50;;;5.70;99.90;;;;;;4988302;28;20726;-85
2023/12/30 01:15:41;;;;;;;4.93;2.73;;;5.70;99.90;;;;;;4999253;28;20218;-84
2023/12/30 01:18:08;;;;;;;3.73;2.00;;;5.70;99.90;;;;;;4991163;28;20285;-84
2023/12/30 01:20:35;;;;;;;4.07;1.70;;;5.70;99.90;;;;;;5013657;28;20226;-84
2023/12/30 01:23:01;;;;;;;4.73;1.80;;;5.70;99.90;;;;;;5012627;28;20310;-84
2023/12/30 01:25:28;;;;;;;2.83;1.63;;;5.70;99.90;;;;;;5011148;28;20248;-84
2023/12/30 01:27:55;;;;;;;4.57;1.90;;;5.70;99.90;;;;;;5004576;28;21102;-85
2023/12/30 01:30:23;;;;;;;3.73;1.60;;;5.70;99.90;;;;;;4993286;28;20270;-84
2023/12/30 01:32:50;;;;;;;3.07;1.57;;;5.70;99.90;;;;;;4990116;28;20219;-84
2023/12/30 01:35:17;;;;;;;2.57;1.30;;;5.80;99.90;;;;;;4994431;28;20223;-84
2023/12/30 01:37:43;;;;;;;2.40;1.30;;;5.80;99.90;;;;;;5003832;28;20223;-84
2023/12/30 01:40:11;;;;;;;2.37;1.40;;;5.80;99.90;;;;;;5007223;28;20718;-84
2023/12/30 01:42:41;;;;;;;5.57;1.53;;;5.70;99.90;;;;;;4991364;28;20224;-86
2023/12/30 01:45:08;;;;;;;3.40;1.37;;;5.70;99.90;;;;;;5006499;28;20949;-87
2023/12/30 01:47:37;;;;;;;4.00;1.47;;;5.70;99.90;;;;;;4984462;28;20933;-86
2023/12/30 01:50:05;;;;;;;3.03;1.17;;;5.70;99.90;;;;;;5012125;28;20228;-87
2023/12/30 01:52:34;;;;;;;2.33;1.20;;;5.60;99.90;;;;;;4999220;28;20227;-87
2023/12/30 01:55:00;;;;;;;1.53;1.10;;;5.60;99.90;;;;;;5009919;28;20285;-88
2023/12/30 01:57:28;;;;;;;4.47;1.40;;;5.60;99.90;;;;;;5011942;28;20258;-87
2023/12/30 01:59:55;;;;;;;4.13;1.63;;;5.50;99.90;;;;;;4998985;28;20282;-85
2023/12/30 02:02:22;;;;;;;4.03;1.47;;;5.50;99.90;;;;;;4995678;28;20254;-84
2023/12/30 02:04:51;;;;;;;3.30;1.20;;;5.50;99.90;;;;;;4994397;28;20347;-85
2023/12/30 02:07:18;;;;;;;2.37;0.93;;;5.50;99.90;;;;;;4991977;28;20312;-86
2023/12/30 02:09:45;;;;;;;2.80;1.07;;;5.40;99.90;;;;;;4997060;28;20238;-86
2023/12/30 02:12:12;;;;;;;2.63;1.00;;;5.40;99.90;;;;;;5006719;28;20258;-86
2023/12/30 02:14:39;;;;;;;1.53;1.00;;;5.30;99.90;;;;;;4991995;28;20234;-86
2023/12/30 02:17:06;;;;;;;2.87;0.90;;;5.30;99.90;;;;;;5006385;28;20230;-86
2023/12/30 02:19:35;;;;;;;2.70;1.30;;;5.20;99.90;;;;;;4994127;28;20257;-87
2023/12/30 02:22:04;;;;;;;2.63;1.00;;;5.30;99.90;;;;;;4990804;28;20716;-85
2023/12/30 02:24:32;;;;;;;4.73;1.20;;;5.20;99.90;;;;;;5012634;28;20220;-86
2023/12/30 02:26:59;;;;;;;2.60;1.00;;;5.20;99.90;;;;;;4998374;28;20232;-87
2023/12/30 02:29:26;;;;;;;2.73;0.80;;;5.20;99.90;;;;;;4990189;28;20289;-86
2023/12/30 02:31:52;;;;;;;2.83;0.77;;;5.20;99.90;;;;;;5010516;28;20768;-87
2023/12/30 02:34:20;;;;;;;1.97;0.87;;;5.30;99.90;;;;;;4994036;28;20230;-86
2023/12/30 02:36:47;;;;;;;4.07;0.97;;;5.30;99.90;;;;;;5024345;28;20222;-85
2023/12/30 02:39:15;;;;;;;4.87;1.00;;;5.30;99.90;;;;;;4989062;28;20943;-85
2023/12/30 02:41:43;;;;;;;3.97;0.83;;;5.30;99.90;;;;;;4984472;28;20324;-85
2023/12/30 02:44:10;;;;;;;2.00;0.80;;;5.30;99.90;;;;;;5005059;28;20227;-85
2023/12/30 02:46:36;;;;;;;5.37;1.30;;;5.30;99.90;;;;;;4986284;28;20226;-85
2023/12/30 02:49:04;;;;;;;3.50;1.00;;;5.30;99.90;;;;;;5004223;28;20222;-85
2023/12/30 02:51:31;;;;;;;4.47;1.30;;;5.30;99.90;;;;;;4988736;28;20266;-86
2023/12/30 02:53:59;;;;;;;4.93;1.27;;;5.30;99.90;;;;;;4991726;28;20353;-85
2023/12/30 02:56:26;;;;;;;5.47;0.90;;;5.20;99.90;;;;;;5002435;28;20281;-84
2023/12/30 02:58:57;;;;;;;5.90;1.37;;;5.20;99.90;;;;;;5005734;28;20269;-85
2023/12/30 03:01:27;;;;;;;3.20;1.13;;;5.20;99.90;;;;;;4986116;28;21734;-85
2023/12/30 03:03:55;;;;;;;5.07;1.30;;;5.10;99.90;;;;;;5004765;28;20218;-84
2023/12/30 03:06:22;;;;;;;3.67;1.00;;;5.10;99.90;;;;;;5004442;28;20308;-84
2023/12/30 03:08:49;;;;;;;3.20;1.07;;;5.00;99.90;;;;;;4986323;28;20564;-84
2023/12/30 03:11:16;;;;;;;8.03;1.30;;;5.00;99.90;;;;;;4990777;28;20226;-84
2023/12/30 03:13:44;;;;;;;3.10;1.10;;;4.90;99.90;;;;;;4982991;28;20287;-84
2023/12/30 03:16:14;;;;;;;3.37;0.93;;;4.90;99.90;;;;;;4952550;28;1046834;-84
2023/12/30 03:18:41;;;;;;;4.90;1.47;;;4.80;99.90;;;;;;5003090;28;20710;-84
2023/12/30 03:21:09;;;;;;;3.27;0.90;;;4.80;99.90;;;;;;4980640;28;20305;-83
2023/12/30 03:23:36;;;;;;;3.17;1.07;;;4.80;99.90;;;;;;5004782;28;20220;-84
2023/12/30 03:26:03;;;;;;;4.53;0.97;;;4.70;99.90;;;;;;5002698;28;20246;-84
2023/12/30 03:28:30;;;;;;;3.93;0.83;;;4.70;99.90;;;;;;5005721;28;20246;-83
2023/12/30 03:30:57;;;;;;;3.23;1.00;;;4.70;99.90;;;;;;5002003;28;20251;-84
2023/12/30 03:33:25;;;;;;;4.77;1.30;;;4.60;99.90;;;;;;4983714;28;20240;-84
2023/12/30 03:35:53;;;;;;;4.80;1.13;;;4.60;99.90;;;;;;5006165;28;20244;-84
2023/12/30 03:38:20;;;;;;;4.60;1.10;;;4.60;99.90;;;;;;4988358;28;20304;-84
2023/12/30 03:40:47;;;;;;;5.00;1.13;;;4.60;99.90;;;;;;5002865;28;20244;-84
2023/12/30 03:43:14;;;;;;;3.90;1.20;;;4.60;99.90;;;;;;4988196;28;20674;-85
2023/12/30 03:45:41;;;;;;;5.50;1.10;;;4.60;99.90;;;;;;4986771;28;20228;-85
2023/12/30 03:48:08;;;;;;;4.80;1.10;;;4.60;99.90;;;;;;4985796;28;20661;-85
2023/12/30 03:50:36;;;;;;;4.77;1.07;;;4.60;99.90;;;;;;4984964;28;20253;-85
2023/12/30 03:53:04;;;;;;;4.60;1.23;;;4.60;99.90;;;;;;4981253;28;20671;-86
2023/12/30 03:55:30;;;;;;;5.13;1.20;;;4.60;99.90;;;;;;4978986;28;20337;-86
2023/12/30 03:57:57;;;;;;;7.20;1.90;;;4.60;99.90;;;;;;5002551;28;20216;-84
2023/12/30 04:00:24;;;;;;;8.63;1.60;;;4.60;99.90;;;;;;5004153;28;20264;-86
2023/12/30 04:02:51;;;;;;;5.63;1.33;;;4.60;99.90;;;;;;5005295;28;20226;-85
2023/12/30 04:05:18;;;;;;;5.80;1.17;;;4.60;99.90;;;;;;4986113;28;20231;-85
2023/12/30 04:07:47;;;;;;;5.47;1.43;;;4.60;99.90;;;;;;5000465;28;20227;-84
2023/12/30 04:10:17;;;;;;;7.70;1.23;;;4.60;99.90;;;;;;4992716;28;20309;-85
2023/12/30 04:12:44;;;;;;;4.63;1.30;;;4.60;99.90;;;;;;4992015;28;20247;-85
2023/12/30 04:15:11;;;;;;;5.53;1.80;;;4.70;99.90;;;;;;4995220;28;20687;-85
2023/12/30 04:17:38;;;;;;;6.40;1.33;;;4.70;99.90;;;;;;5003745;28;20418;-85
2023/12/30 04:20:07;;;;;;;6.80;1.30;;;4.80;99.90;;;;;;4987610;28;20245;-85
2023/12/30 04:22:34;;;;;;;8.03;1.47;;;4.80;99.90;;;;;;4986192;28;20237;-85
2023/12/30 04:25:03;;;;;;;4.30;1.57;;;4.90;99.90;;;;;;4988411;28;20316;-85
2023/12/30 04:27:31;;;;;;;6.23;1.50;;;4.90;99.90;;;;;;4982520;28;20229;-86
2023/12/30 04:29:58;;;;;;;7.13;1.60;;;5.00;99.90;;;;;;5006611;28;20944;-85
2023/12/30 04:32:25;;;;;;;5.47;1.40;;;5.00;99.90;;;;;;4980195;28;20225;-87
2023/12/30 04:34:52;;;;;;;3.93;1.30;;;5.00;99.90;;;;;;5030423;28;20229;-86
2023/12/30 04:37:20;;;;;;;9.47;1.50;;;5.00;99.90;;;;;;4992178;28;20339;-86
2023/12/30 04:39:49;;;;;;;5.07;1.30;;;5.00;99.90;;;;;;5008486;28;20761;-86
2023/12/30 04:42:17;;;;;;;4.23;1.10;;;5.00;99.90;;;;;;4992439;28;20880;-87
2023/12/30 04:44:45;;;;;;;4.57;1.50;;;5.00;99.90;;;;;;4987741;28;20232;-87
2023/12/30 04:47:12;;;;;;;4.33;1.33;;;5.00;99.90;;;;;;5021558;28;20578;-87
2023/12/30 04:49:39;;;;;;;8.77;1.60;;;5.00;99.90;;;;;;4978963;28;20245;-85
2023/12/30 04:52:06;;;;;;;4.17;1.30;;;5.00;99.90;;;;;;4988672;28;20232;-86
2023/12/30 04:54:33;;;;;;;5.83;2.23;;;5.00;99.90;;;;;;4982864;28;20260;-86
2023/12/30 04:57:00;;;;;;;9.07;1.80;;;5.00;99.90;;;;;;4991340;28;20240;-87
2023/12/30 04:59:28;;;;;;;8.07;1.73;;;5.00;99.90;;;;;;4977349;28;20254;-86
2023/12/30 05:01:55;;;;;;;7.00;1.90;;;5.00;99.90;;;;;;4993212;28;20218;-84
2023/12/30 05:04:23;;;;;;;6.63;1.60;;;5.00;99.90;;;;;;4972152;28;20224;-88
2023/12/30 05:06:51;;;;;;;6.20;1.47;;;5.00;99.90;;;;;;4999779;28;20290;-86
2023/12/30 05:09:17;;;;;;;5.60;1.33;;;5.00;99.90;;;;;;4994461;28;20232;-86
2023/12/30 05:11:45;;;;;;;6.33;2.10;;;5.00;99.90;;;;;;4985569;28;20223;-88
2023/12/30 05:14:12;;;;;;;7.83;1.80;;;5.10;99.90;;;;;;5006233;28;20230;-87
2023/12/30 05:16:59;;;;;;;6.50;1.83;;;5.10;99.90;;;;;;4980995;28;20589;-87
2023/12/30 05:19:26;;;;;;;7.10;1.50;;;5.10;99.90;;;;;;5022335;28;20242;-85
2023/12/30 05:21:54;;;;;;;8.47;1.80;;;5.10;99.90;;;;;;4986347;28;20788;-84
2023/12/30 05:24:21;;;;;;;4.83;1.50;;;5.10;99.90;;;;;;5009297;28;20233;-87
2023/12/30 05:26:48;;;;;;;5.90;1.73;;;5.10;99.90;;;;;;4981826;28;20559;-86
2023/12/30 05:29:16;;;;;;;2.13;1.00;;;5.10;99.90;;;;;;4999340;28;20233;-86
2023/12/30 05:31:42;;;;;;;6.33;1.87;;;5.10;99.90;;;;;;4995904;28;20233;-86
2023/12/30 05:34:11;;;;;;;5.30;1.40;;;5.10;99.90;;;;;;4997304;28;20735;-89
2023/12/30 05:36:41;;;;;;;5.47;1.67;;;5.10;99.90;;;;;;5004627;28;21084;-87
2023/12/30 05:39:08;;;;;;;5.30;1.73;;;5.10;99.90;;;;;;5011994;28;20226;-91
2023/12/30 05:41:35;;;;;;;6.63;1.63;;;5.10;99.90;;;;;;4988638;28;20245;-87
2023/12/30 05:44:02;;;;;;;8.67;1.80;;;5.10;99.90;;;;;;5024684;28;20234;-87
2023/12/30 05:46:30;;;;;;;5.90;1.93;;;5.10;99.90;;;;;;4987763;28;20599;-85
2023/12/30 05:48:57;;;;;;;10.13;1.60;;;5.10;99.90;;;;;;4992014;28;20230;-85
2023/12/30 05:51:26;;;;;;;5.47;1.80;;;5.20;99.90;;;;;;4979078;28;27005;-86
2023/12/30 05:53:53;;;;;;;5.67;1.27;;;5.20;99.90;;;;;;5010170;28;20226;-86
2023/12/30 05:56:23;;;;;;;7.50;1.50;;;5.20;99.90;;;;;;5025675;28;20226;-88
2023/12/30 05:58:50;;;;;;;6.83;1.67;;;5.20;99.90;;;;;;5006240;28;20239;-84
2023/12/30 06:01:17;;;;;;;7.63;2.00;;;5.20;99.90;;;;;;4995645;28;20240;-84
2023/12/30 06:03:44;;;;;;;7.13;1.87;;;5.20;99.90;;;;;;4988991;28;20627;-82
2023/12/30 06:06:11;;;;;;;7.10;1.43;;;5.20;99.90;;;;;;4998014;28;20227;-84
2023/12/30 06:08:40;;;;;;;4.80;1.63;;;5.20;99.90;;;;;;4994232;28;20234;-84
2023/12/30 06:11:07;;;;;;;10.23;1.90;;;5.20;99.90;;;;;;5008589;28;20234;-82
2023/12/30 06:13:34;;;;;;;8.27;1.60;;;5.20;99.90;;;;;;4996004;28;20222;-84
2023/12/30 06:16:01;;;;;;;5.77;1.63;;;5.20;99.90;;;;;;4998026;28;20299;-83
2023/12/30 06:18:30;;;;;;;7.57;1.57;;;5.30;99.90;;;;;;5016134;28;20234;-84
2023/12/30 06:20:58;;;;;;;7.90;1.40;;;5.30;99.90;;;;;;5015693;28;20745;-84
2023/12/30 06:23:27;;;;;;;5.10;1.50;;;5.30;99.90;;;;;;4991813;28;20231;-84
2023/12/30 06:25:55;;;;;;;7.57;2.27;;;5.30;99.90;;;;;;4997925;28;20733;-84
2023/12/30 06:28:24;;;;;;;4.93;1.43;;;5.30;99.90;;;;;;4999052;28;20226;-84
2023/12/30 06:30:51;;;;;;;8.07;1.80;;;5.30;99.90;;;;;;4998150;28;20233;-84
2023/12/30 06:33:18;;;;;;;8.07;1.60;;;5.30;99.90;;;;;;4995757;28;20218;-84
2023/12/30 06:35:45;;;;;;;4.73;1.70;;;5.30;99.90;;;;;;4989328;28;20721;-84
2023/12/30 06:38:12;;;;;;;7.53;1.80;;;5.30;99.90;;;;;;5010164;28;20765;-83
2023/12/30 06:40:39;;;;;;;9.27;2.40;;;5.30;99.90;;;;;;4996643;28;20300;-84
2023/12/30 06:43:07;;;;;;;8.13;1.67;;;5.30;99.90;;;;;;5001139;28;20318;-83
2023/12/30 06:45:34;;;;;;;7.90;2.27;;;5.30;99.90;;;;;;4995258;28;20270;-84
2023/12/30 06:48:01;;;;;;;6.20;1.97;;;5.30;99.90;;;;;;4995822;28;20238;-84
2023/12/30 06:50:27;;;;;;;8.57;1.70;;;5.40;99.90;;;;;;4993047;28;20230;-84
2023/12/30 06:52:55;;;;;;;4.20;1.30;;;5.40;99.90;;;;;;5011841;28;20302;-85
2023/12/30 06:55:22;;;;;;;7.53;1.87;;;5.40;99.90;;;;;;5008408;28;20215;-85
2023/12/30 06:57:48;;;;;;;11.23;2.13;;;5.40;99.90;;;;;;4997436;28;20293;-84
2023/12/30 07:00:17;;;;;;;8.70;1.70;;;5.40;99.90;;;;;;5001991;28;20273;-83
2023/12/30 07:02:44;;;;;;;9.10;2.17;;;5.40;99.90;;;;;;4955611;28;20227;-85
2023/12/30 07:05:11;;;;;;;6.07;1.63;;;5.40;99.90;;;;;;4979733;28;20231;-85
2023/12/30 07:07:38;;;;;;;8.80;1.40;;;5.40;99.90;;;;;;4992493;28;20376;-84
2023/12/30 07:10:05;;;;;;;10.10;1.50;;;5.40;99.90;;;;;;4981164;28;20252;-84
2023/12/30 07:12:32;;;;;;;8.60;1.70;;;5.40;99.90;;;;;;4990739;28;20227;-84
2023/12/30 07:14:59;;;;;;;6.47;1.50;;;5.40;99.90;;;;;;5006991;28;20818;-84
2023/12/30 07:17:27;;;;;;;6.30;1.63;;;5.40;99.90;;;;;;4990632;28;20234;-85
2023/12/30 07:19:54;;;;;;;5.50;1.80;;;5.40;99.90;;;;;;5003924;28;20282;-84
2023/12/30 07:22:21;;;;;;;10.03;1.80;;;5.40;99.90;;;;;;4991817;28;20282;-84
2023/12/30 07:24:48;;;;;;;7.30;1.73;;;5.40;99.90;;;;;;5004655;28;20231;-84
2023/12/30 07:27:15;;;;;;;4.33;1.40;;;5.40;99.90;;;;;;4978205;28;20298;-84
2023/12/30 07:29:42;;;;;;;7.83;1.90;;;5.40;99.90;;;;;;4986618;28;20237;-83
2023/12/30 07:32:08;;;;;;;7.77;1.93;;;5.40;99.90;;;;;;4974254;28;20232;-84
2023/12/30 07:34:36;;;;;;;5.20;1.93;;;5.30;99.90;;;;;;4980901;28;20236;-84
2023/12/30 07:37:04;;;;;;;6.13;1.40;;;5.40;99.90;;;;;;4991940;28;20237;-83
2023/12/30 07:39:33;;;;;;;7.73;1.80;;;5.40;99.90;;;;;;4996521;28;20723;-82
2023/12/30 07:42:00;;;;;;;6.20;1.97;;;5.40;99.90;;;;;;5029560;28;20225;-85
2023/12/30 07:44:28;;;;;;;14.73;2.40;;;5.30;99.90;;;;;;4992697;28;20227;-83
2023/12/30 07:46:55;;;;;;;10.07;2.50;;;5.30;99.90;;;;;;4995539;28;20294;-83
2023/12/30 07:49:21;;;;;;;5.73;1.60;;;5.30;99.90;;;;;;5008678;28;20313;-83
2023/12/30 07:51:50;;;;;;;11.33;2.50;;;5.30;99.90;;;;;;5019326;28;20337;-84
2023/12/30 07:54:16;;;;;;;8.10;2.07;;;5.30;99.90;;;;;;4994061;28;20257;-85
2023/12/30 07:56:43;;;;;;;10.03;2.13;;;5.30;99.90;;;;;;4988950;28;20317;-83
2023/12/30 07:59:11;;;;;;;9.30;1.90;;;5.30;99.90;;;;;;5022897;28;20217;-84
2023/12/30 08:01:42;;;;;;;8.97;2.07;;;5.30;99.90;;;;;;4993566;28;20300;-84
2023/12/30 08:04:09;;;;;;;10.70;1.93;;;5.40;99.90;;;;;;4975767;28;20703;-84
2023/12/30 08:06:37;;;;;;;6.97;2.10;;;5.40;99.90;;;;;;5010026;28;21363;-83
2023/12/30 08:09:05;;;;;;;6.83;1.90;;;5.40;99.90;;;;;;5002571;28;20226;-84
2023/12/30 08:11:32;;;;;;;19.70;2.67;;;5.40;99.90;;;;;;4981028;28;20281;-84
2023/12/30 08:13:59;;;;;;;10.10;1.97;;;5.40;99.90;;;;;;5004414;28;20757;-85
2023/12/30 08:16:25;;;;;;;7.10;1.63;;;5.40;99.90;;;;;;4984418;28;20626;-84
2023/12/30 08:18:52;;;;;;;8.63;1.60;;;5.40;99.90;;;;;;4985059;28;20341;-84
2023/12/30 08:21:19;;;;;;;9.97;2.20;;;5.40;99.90;;;;;;5002004;28;20306;-84
2023/12/30 08:23:46;;;;;;;7.17;1.90;;;5.40;99.90;;;;;;5004879;28;20226;-84
2023/12/30 08:26:14;;;;;;;8.53;2.10;;;5.40;99.90;;;;;;5015391;28;20305;-84
2023/12/30 08:28:42;;;;;;;10.27;2.23;;;5.50;99.90;;;;;;4986208;28;20218;-86
2023/12/30 08:31:08;;;;;;;8.40;1.73;;;5.50;99.90;;;;;;4982537;28;20311;-83
2023/12/30 08:33:35;;;;;;;6.93;1.70;;;5.50;99.90;;;;;;4983039;28;20234;-85
2023/12/30 08:36:02;;;;;;;10.20;2.77;;;5.50;99.90;;;;;;4984552;28;20312;-83
2023/12/30 08:38:31;;;;;;;7.17;2.37;;;5.50;99.90;;;;;;4983704;28;20702;-85
2023/12/30 08:40:58;;;;;;;10.40;1.80;;;5.60;99.90;;;;;;5000569;28;20224;-86
2023/12/30 08:43:26;;;;;;;7.20;2.43;;;5.60;99.90;;;;;;4981892;28;20357;-83
2023/12/30 08:45:53;;;;;;;11.10;2.23;;;5.60;99.90;;;;;;4985984;28;20878;-84
2023/12/30 08:48:19;;;;;;;5.57;1.90;;;5.60;99.90;;;;;;4986403;28;20239;-84
2023/12/30 08:50:47;;;;;;;11.13;2.17;;;5.70;99.90;;;;;;4986202;28;20242;-83
2023/12/30 08:53:15;;;;;;;10.63;2.20;;;5.70;99.90;;;;;;5017427;28;20310;-83
2023/12/30 08:55:44;;;;;;;10.50;2.60;;;5.70;99.90;;;;;;5005757;28;20260;-83
2023/12/30 08:58:11;;;;;;;6.43;1.80;;;5.70;99.90;;;;;;5018112;28;20235;-85
2023/12/30 09:00:40;;;;;;;8.50;2.20;;;5.80;99.90;;;;;;4984875;28;20314;-83
2023/12/30 09:03:07;;;;;;;10.80;2.43;;;5.80;99.90;;;;;;4999327;28;20226;-84
2023/12/30 09:05:34;;;;;;;8.93;1.73;;;5.80;99.90;;;;;;5004545;28;20237;-85
2023/12/30 09:08:03;;;;;;;11.60;2.00;;;5.90;99.90;;;;;;4988003;28;20236;-85
2023/12/30 09:10:31;;;;;;;10.20;2.10;;;5.90;99.90;;;;;;4979336;28;20238;-83
2023/12/30 09:12:59;;;;;;;8.47;1.80;;;6.00;99.90;;;;;;5001663;28;20804;-84
2023/12/30 09:15:26;;;;;;;9.30;2.63;;;6.00;99.90;;;;;;5016507;28;20228;-83
2023/12/30 09:17:55;;;;;;;6.83;2.47;;;6.00;99.90;;;;;;4978552;28;20253;-85
2023/12/30 09:20:22;;;;;;;9.07;2.43;;;6.10;99.90;;;;;;5017866;28;20219;-84
2023/12/30 09:22:48;;;;;;;6.43;1.93;;;6.10;99.90;;;;;;5003826;28;20596;-83
2023/12/30 09:25:15;;;;;;;6.37;1.57;;;6.10;99.90;;;;;;4989499;28;20769;-84
2023/12/30 09:27:42;;;;;;;5.43;1.70;;;6.10;99.90;;;;;;5005419;28;20227;-83
2023/12/30 09:30:10;;;;;;;10.07;2.10;;;6.10;99.90;;;;;;5015019;28;20258;-84
2023/12/30 09:32:36;;;;;;;7.67;1.97;;;6.20;99.90;;;;;;4995728;28;20238;-84
2023/12/30 09:35:05;;;;;;;6.27;1.90;;;6.10;99.90;;;;;;4994143;28;20888;-83
2023/12/30 09:37:32;;;;;;;11.70;2.60;;;6.20;99.90;;;;;;5001607;28;20283;-84
2023/12/30 09:39:59;;;;;;;8.80;1.90;;;6.20;99.90;;;;;;5002492;28;20242;-84
2023/12/30 09:42:27;;;;;;;10.10;2.57;;;6.10;99.90;;;;;;4977982;28;20226;-83
2023/12/30 09:44:55;;;;;;;10.57;2.83;;;6.10;99.90;;;;;;4989768;28;20305;-83
2023/12/30 09:47:23;;;;;;;3.40;1.23;;;6.10;99.90;;;;;;4999496;28;20248;-84
2023/12/30 09:49:50;;;;;;;8.13;2.70;;;6.10;99.90;;;;;;4986130;28;20260;-84
2023/12/30 09:52:19;;;;;;;7.13;1.50;;;6.00;99.90;;;;;;4990513;28;20316;-87
2023/12/30 09:54:46;;;;;;;6.93;1.67;;;6.00;99.90;;;;;;4989671;28;20256;-85
2023/12/30 09:57:13;;;;;;;3.63;1.63;;;5.90;99.90;;;;;;5003556;28;20224;-85
2023/12/30 09:59:41;;;;;;;6.63;1.97;;;5.90;99.90;;;;;;4987386;28;20327;-84
2023/12/30 10:02:11;;;;;;;5.90;1.73;;;5.80;99.90;;;;;;4985609;28;20346;-85
2023/12/30 10:04:38;;;;;;;7.40;2.40;;;5.70;99.90;;;;;;4994555;28;20231;-84
2023/12/30 10:07:04;;;;;;;8.00;2.50;;;5.70;99.90;;;;;;4995012;28;20225;-84
2023/12/30 10:09:33;;;;;;;5.97;1.97;;;5.60;99.90;;;;;;4993344;28;20249;-85
2023/12/30 10:12:00;;;;;;;11.10;2.47;;;5.50;99.90;;;;;;5020348;28;20233;-84
2023/12/30 10:14:27;;;;;;;8.37;2.00;;;5.50;99.90;;;;;;4988752;28;20222;-86
2023/12/30 10:16:54;;;;;;;8.57;2.57;;;5.50;99.90;;;;;;5022477;28;20237;-85
2023/12/30 10:19:20;;;;;;;7.07;2.30;;;5.50;99.90;;;;;;5005993;28;20235;-85
2023/12/30 10:21:47;;;;;;;11.30;2.70;;;5.40;99.90;;;;;;4995202;28;20284;-84
2023/12/30 10:24:16;;;;;;;11.03;2.37;;;5.40;99.90;;;;;;4990098;28;20217;-87
2023/12/30 10:26:44;;;;;;;11.20;2.73;;;5.40;99.90;;;;;;5009179;28;20318;-85
2023/12/30 10:29:12;;;;;;;10.33;2.17;;;5.40;99.90;;;;;;4992246;28;20287;-85
2023/12/30 10:31:39;;;;;;;11.13;2.10;;;5.30;99.90;;;;;;4990316;28;20231;-85
2023/12/30 10:34:06;;;;;;;10.97;2.53;;;5.30;99.90;;;;;;4989649;28;20223;-85
2023/12/30 10:36:33;;;;;;;13.13;2.50;;;5.30;99.90;;;;;;4990322;28;20231;-85
2023/12/30 10:39:00;;;;;;;9.50;2.57;;;5.30;99.90;;;;;;5007359;28;20261;-84
2023/12/30 10:41:27;;;;;;;9.83;2.00;;;5.30;99.90;;;;;;5025393;28;20232;-85
2023/12/30 10:43:56;;;;;;;8.83;2.07;;;5.30;99.90;;;;;;4991044;28;20296;-86
2023/12/30 10:46:26;;;;;;;7.70;2.30;;;5.30;99.90;;;;;;4993582;28;20258;-85
2023/12/30 10:48:58;;;;;;;10.17;2.37;;;5.30;99.90;;;;;;5008659;28;20271;-85
2023/12/30 10:51:26;;;;;;;8.10;2.07;;;5.30;99.90;;;;;;5010108;28;20237;-85
2023/12/30 10:54:03;;;;;;;11.77;2.93;;;5.30;99.90;;;;;;4996257;28;20222;-85
2023/12/30 10:56:32;;;;;;;7.80;1.90;;;5.30;99.90;;;;;;4997305;28;20582;-85
2023/12/30 10:59:06;;;;;;;7.00;1.90;;;5.30;99.90;;;;;;4995829;28;20238;-84
2023/12/30 11:01:34;;;;;;;8.50;1.77;;;5.30;99.90;;;;;;4998248;28;20230;-85
2023/12/30 11:04:01;;;;;;;8.07;2.90;;;5.30;99.90;;;;;;4989136;28;20224;-85
2023/12/30 11:06:37;;;;;;;8.97;2.50;;;5.30;99.90;;;;;;5008426;28;20594;-85
2023/12/30 11:09:07;;;;;;;9.20;1.93;;;5.30;99.90;;;;;;5009471;28;20603;-85
2023/12/30 11:11:34;;;;;;;7.27;2.20;;;5.30;99.90;;;;;;4993114;28;20234;-86
2023/12/30 11:14:12;;;;;;;6.43;1.90;;;5.30;99.90;;;;;;5013750;28;20312;-85
2023/12/30 11:16:38;;;;;;;9.13;2.30;;;5.30;99.90;;;;;;4995694;28;20293;-85
2023/12/30 11:19:05;;;;;;;6.63;1.77;;;5.30;99.90;;;;;;5007047;28;20740;-86
2023/12/30 11:21:40;;;;;;;9.67;2.73;;;5.30;99.90;;;;;;4990986;28;20305;-88
2023/12/30 11:24:09;;;;;;;3.47;1.23;;;5.20;99.90;;;;;;4994985;28;20268;-85
2023/12/30 11:26:36;;;;;;;4.80;2.03;;;5.20;99.90;;;;;;4986954;28;20217;-84
2023/12/30 11:29:05;;;;;;;4.93;1.60;;;5.30;99.90;;;;;;4990747;28;20226;-85
2023/12/30 11:31:32;;;;;;;4.50;2.00;;;5.20;99.90;;;;;;5024389;28;20539;-85
2023/12/30 11:34:00;;;;;;;5.53;1.87;;;5.20;99.90;;;;;;4985804;28;20308;-85
2023/12/30 11:36:28;;;;;;;4.17;1.67;;;5.20;99.90;;;;;;4991057;28;20259;-85
2023/12/30 11:38:56;;;;;;;3.10;1.33;;;5.20;99.90;;;;;;5013256;28;20227;-85
2023/12/30 11:41:23;;;;;;;4.43;1.80;;;5.20;99.90;;;;;;4993068;28;20305;-86
2023/12/30 11:43:50;;;;;;;3.30;1.43;;;5.20;99.90;;;;;;4993241;28;20226;-85
2023/12/30 11:46:18;;;;;;;2.37;1.30;;;5.20;99.90;;;;;;4974366;28;20231;-87
2023/12/30 11:48:46;;;;;;;4.67;1.40;;;5.20;99.90;;;;;;4989718;28;21186;-85
2023/12/30 11:51:20;;;;;;;4.47;1.30;;;5.30;99.90;;;;;;4993699;28;20222;-85
2023/12/30 11:53:47;;;;;;;5.27;1.67;;;5.30;99.90;;;;;;5009011;28;20231;-85
2023/12/30 11:56:16;;;;;;;3.83;1.97;;;5.30;99.90;;;;;;4988257;28;20228;-85
2023/12/30 11:58:43;;;;;;;5.27;1.47;;;5.30;99.90;;;;;;4993919;28;20233;-85
2023/12/30 12:01:10;;;;;;;5.47;1.43;;;5.40;99.90;;;;;;4993555;28;20230;-86
2023/12/30 12:03:39;;;;;;;4.33;1.60;;;5.40;99.90;;;;;;4988778;28;20268;-85
2023/12/30 12:06:07;;;;;;;6.03;1.70;;;5.40;99.90;;;;;;4997414;28;20599;-83
2023/12/30 12:08:34;;;;;;;5.37;1.60;;;5.40;99.90;;;;;;4990191;28;20241;-87
2023/12/30 12:11:01;;;;;;;4.57;1.57;;;5.40;99.90;;;;;;4996763;28;20976;-86
2023/12/30 12:13:28;;;;;;;4.60;1.50;;;5.50;99.90;;;;;;4989379;28;20239;-86
2023/12/30 12:15:57;;;;;;;6.37;1.83;;;5.50;99.90;;;;;;4981787;28;20242;-87
2023/12/30 12:18:24;;;;;;;6.67;2.43;;;5.60;99.90;;;;;;4964390;28;20237;-87
2023/12/30 12:20:54;;;;;;;8.83;1.93;;;5.60;99.90;;;;;;4975362;28;20246;-85
2023/12/30 12:23:24;;;;;;;4.50;1.83;;;5.70;99.90;;;;;;4975290;28;20224;-87
2023/12/30 12:25:51;;;;;;;8.90;2.10;;;5.80;99.90;;;;;;4976954;28;20306;-86
2023/12/30 12:28:20;;;;;;;3.97;1.87;;;5.80;99.90;;;;;;5001791;28;20279;-86
2023/12/30 12:30:47;;;;;;;6.27;1.60;;;5.90;99.90;;;;;;4987690;28;20226;-85
2023/12/30 12:33:15;;;;;;;8.60;2.27;;;5.90;99.90;;;;;;4999827;28;20873;-85
2023/12/30 12:35:42;;;;;;;8.03;2.40;;;6.00;99.90;;;;;;4963258;28;20267;-85
2023/12/30 12:38:11;;;;;;;8.17;2.17;;;6.00;99.90;;;;;;4974899;28;20231;-85
2023/12/30 12:40:38;;;;;;;9.30;2.17;;;6.00;99.90;;;;;;4999298;28;20235;-85
2023/12/30 12:43:05;;;;;;;7.20;2.00;;;6.10;99.90;;;;;;4972403;28;20318;-85
2023/12/30 12:45:32;;;;;;;8.07;1.97;;;6.00;99.90;;;;;;4982160;28;20234;-86
2023/12/30 12:47:59;;;;;;;6.57;2.30;;;6.10;99.90;;;;;;4985932;28;20243;-85
2023/12/30 12:50:27;;;;;;;5.00;2.23;;;6.10;99.90;;;;;;4975746;28;20309;-85
2023/12/30 12:52:54;;;;;;;8.23;2.43;;;6.10;99.90;;;;;;4978347;28;20238;-85
2023/12/30 12:55:22;;;;;;;6.97;2.37;;;6.10;99.90;;;;;;5007069;28;20952;-85
2023/12/30 12:57:49;;;;;;;9.20;2.43;;;6.10;99.90;;;;;;5000107;28;20307;-86